Flight Track Log - Related Links

Times and Time Zones

All times are in EDT time to prevent confusion due to time zone crossing. See the SWA1969 flight status page for this flight to view local times or setup timezone preferences in your user account.


Time Position Orientation Groundspeed Altitude Reporting Facility
EDT Latitude Longitude Course Direction KTS MPH feet Rate Location/Type
Fri 11:13:57 AM 41.8150 -87.7694 90° East 174 200 2,300  Level Chicago Center
Fri 11:14:59 AM 41.8261 -87.6936 79° East 256 295 4,000 1,902 Climbing Chicago Center
Fri 11:16:00 AM 41.8161 -87.6042 99° East 245 282 6,200 2,585 Climbing Chicago Center
Fri 11:17:02 AM 41.8058 -87.5047 98° East 260 299 9,300 2,903 Climbing Chicago Center
Fri 11:18:04 AM 41.7944 -87.3892 97° East 305 351 12,200 2,537 Climbing Chicago Center
Fri 11:19:00 AM 41.7500 -86.9470 90° East  Level FlightAware Approximate
Fri 11:19:05 AM 41.7811 -87.2564 98° East 348 400 14,500  Level Chicago Center
Fri 11:20:07 AM 41.7636 -87.0842 98° East 384 442 18,300 3,171 Climbing Chicago Center
Fri 11:21:08 AM 41.7625 -86.9294 91° East 409 471 21,000 2,732 Climbing Chicago Center
Fri 11:22:10 AM 41.7631 -86.7714 90° East 423 487 23,900 2,419 Climbing Chicago Center
Fri 11:23:12 AM 41.7647 -86.6025 89° East 429 494 26,000 1,902 Climbing Chicago Center
Fri 11:24:13 AM 41.7656 -86.4328 90° East 449 517 27,800 1,707 Climbing Chicago Center
Fri 11:25:15 AM 41.7775 -86.2575 85° East 469 540 29,500 1,707 Climbing Chicago Center
Fri 11:26:16 AM 41.8094 -86.0803 76° East 485 558 31,300 1,610 Climbing Chicago Center
Fri 11:27:18 AM 41.8389 -85.9014 77° East 489 563 32,800 1,403 Climbing Chicago Center
Fri 11:28:20 AM 41.8703 -85.7183 77° East 496 571 34,200 1,268 Climbing Chicago Center
Fri 11:29:21 AM 41.9019 -85.5336 77° East 501 577 35,400 1,171 Climbing Chicago Center
Fri 11:30:23 AM 41.9336 -85.3447 77° East 509 586 36,600 1,024 Climbing Chicago Center
Fri 11:31:24 AM 41.9536 -85.1547 82° East 513 590 37,500 951 Climbing Chicago Center
Fri 11:31:45 AM 41.9531 -85.0789 91° East 508 585 37,900 1,111 Climbing Cleveland Center
Fri 11:32:45 AM 41.9522 -84.8861 90° East 508 585 39,000 550 Climbing Cleveland Center
Fri 11:33:45 AM 41.9486 -84.6989 91° East 508 585 39,000  Level Cleveland Center
Fri 11:34:45 AM 41.9469 -84.5117 91° East 508 585 39,000  Level Cleveland Center
Fri 11:35:45 AM 41.9469 -84.3244 90° East 502 578 39,000  Level Cleveland Center
Fri 11:36:45 AM 41.9511 -84.1264 88° East 494 568 39,000  Level Cleveland Center
Fri 11:37:45 AM 41.9756 -83.9378 80° East 496 571 39,000  Level Cleveland Center
Fri 11:38:45 AM 41.9972 -83.7600 81° East 496 571 39,000  Level Cleveland Center
Fri 11:39:45 AM 42.0189 -83.5767 81° East 501 577 39,000  Level Cleveland Center
Fri 11:40:45 AM 42.0400 -83.3958 81° East 501 577 39,000  Level Cleveland Center
Fri 11:41:45 AM 42.0586 -83.2317 81° East 501 577 39,000  Level Cleveland Center
Fri 11:42:45 AM 42.0797 -83.0311 82° East 501 577 39,000  Level Cleveland Center
Fri 11:43:45 AM 42.1022 -82.8472 81° East 501 577 39,000  Level Cleveland Center
Fri 11:44:45 AM 42.1225 -82.6603 82° East 501 577 39,000  Level Cleveland Center
Fri 11:45:45 AM 42.1444 -82.4819 81° East 493 567 39,000  Level Cleveland Center
Fri 11:46:45 AM 42.1597 -82.2975 84° East 493 567 39,000  Level Cleveland Center
Fri 11:47:45 AM 42.1831 -82.1186 80° East 493 567 39,000  Level Cleveland Center
Fri 11:48:45 AM 42.2000 -81.9342 83° East 488 562 39,000  Level Cleveland Center
Fri 11:49:45 AM 42.2208 -81.7522 81° East 493 567 39,000  Level Cleveland Center
Fri 11:50:45 AM 42.2392 -81.5703 82° East 493 567 39,000  Level Cleveland Center
Fri 11:51:45 AM 42.2572 -81.3883 82° East 493 567 39,000  Level Cleveland Center
Fri 11:52:45 AM 42.2750 -81.2089 82° East 488 562 39,000  Level Cleveland Center
Fri 11:53:45 AM 42.2925 -81.0239 83° East 483 556 39,000  Level Cleveland Center
Fri 11:54:45 AM 42.3097 -80.8583 82° East 489 563 39,000  Level Cleveland Center
Fri 11:55:45 AM 42.3247 -80.6731 84° East 494 568 39,000  Level Cleveland Center
Fri 11:56:45 AM 42.3433 -80.4878 82° East 494 568 39,000  Level Cleveland Center
Fri 11:57:45 AM 42.3578 -80.2994 84° East 506 582 39,000  Level Cleveland Center
Fri 11:58:45 AM 42.3739 -80.1167 83° East 500 575 39,000  Level Cleveland Center
Fri 11:59:45 AM 42.3917 -79.9311 83° East 500 575 39,000  Level Cleveland Center
Fri 12:00:45 PM 42.4072 -79.7481 83° East 500 575 39,000  Level Cleveland Center
Fri 12:01:45 PM 42.4203 -79.5594 85° East 500 575 39,000  Level Cleveland Center
Fri 12:02:45 PM 42.4372 -79.3733 83° East 500 575 39,000  Level Cleveland Center
Fri 12:03:45 PM 42.4519 -79.1931 84° East 500 575 39,000  Level Cleveland Center
Fri 12:04:45 PM 42.4700 -78.9872 83° East 495 570 39,000  Level Cleveland Center
Fri 12:05:45 PM 42.4819 -78.8039 85° East 495 570 39,000  Level Cleveland Center
Fri 12:06:45 PM 42.4956 -78.6206 84° East 495 570 39,000  Level Cleveland Center
Fri 12:07:45 PM 42.5089 -78.4342 84° East 495 570 39,000  Level Cleveland Center
Fri 12:08:45 PM 42.5219 -78.2478 85° East 500 575 39,000  Level Cleveland Center
Fri 12:09:45 PM 42.5347 -78.0642 85° East 500 575 39,000  Level Cleveland Center
Fri 12:10:45 PM 42.5475 -77.8803 85° East 500 575 39,000  Level Cleveland Center
Fri 12:11:45 PM 42.5558 -77.7108 86° East 500 575 39,000  Level Cleveland Center
Fri 12:13:59 PM 42.5842 -77.2969 85° East 525 604 39,000  Level Boston Center
Fri 12:15:00 PM 42.5947 -77.1481 84° East 503 579 39,000  Level Boston Center
Fri 12:15:58 PM 42.6078 -76.9289 85° East 490 564 39,000  Level Boston Center
Fri 12:16:59 PM 42.6167 -76.7489 86° East 490 564 39,000  Level Boston Center
Fri 12:18:00 PM 42.6278 -76.5661 85° East 485 558 39,000  Level Boston Center
Fri 12:18:58 PM 42.6383 -76.3833 85° East 480 552 39,000  Level Boston Center
Fri 12:19:58 PM 42.6492 -76.1864 86° East 475 547 39,000  Level Boston Center
Fri 12:20:59 PM 42.6594 -76.0006 86° East 480 552 39,000  Level Boston Center
Fri 12:21:59 PM 42.6692 -75.8175 86° East 480 552 39,000  Level Boston Center
Fri 12:22:59 PM 42.6764 -75.6400 87° East 480 552 39,000  Level Boston Center
Fri 12:24:00 PM 42.6836 -75.4539 87° East 475 547 39,000 -992 Level Boston Center
Fri 12:25:00 PM 42.6922 -75.2736 86° East 480 552 37,000 -2,231 Descending Boston Center
Fri 12:26:01 PM 42.7008 -75.0903 86° East 480 552 34,500 -2,339 Descending Boston Center
Fri 12:26:58 PM 42.7050 -74.9067 88° East 480 552 32,400 -2,103 Descending Boston Center
Fri 12:27:58 PM 42.7128 -74.7347 86° East 474 545 30,400 -1,700 Descending Boston Center
Fri 12:28:58 PM 42.7203 -74.5625 87° East 466 536 29,000 -744 Descending Boston Center
Fri 12:29:59 PM 42.7253 -74.3986 88° East 442 509 28,900 -545 Descending Boston Center
Fri 12:30:59 PM 42.7322 -74.2322 87° East 437 503 27,900 -992 Descending Boston Center
Fri 12:32:00 PM 42.7411 -74.0656 86° East 437 503 26,900 -984 Descending Boston Center
Fri 12:33:01 PM 42.7453 -73.9017 88° East 437 503 25,900 -1,017 Descending Boston Center
Fri 12:33:58 PM 42.7472 -73.7436 89° East 432 497 24,900 -915 Descending Boston Center
Fri 12:34:59 PM 42.7572 -73.5994 85° East 432 497 24,100 -934 Descending Boston Center
Fri 12:36:00 PM 42.7606 -73.4722 88° East 427 491 23,000 -541 Descending Boston Center
Fri 12:37:01 PM 42.7683 -73.2886 87° East 408 470 23,000  Level Boston Center
Fri 12:38:00 PM 42.7756 -73.1331 86° East 403 464 23,000 -50 Level Boston Center
Fri 12:39:00 PM 42.7828 -72.9606 87° East 409 471 22,900 -1,627 Descending Boston Center
Fri 12:39:58 PM 42.7875 -72.8136 87° East 397 457 19,800 -3,126 Descending Boston Center
Fri 12:40:59 PM 42.7961 -72.6750 85° East 397 457 16,700 -2,927 Descending Boston Center
Fri 12:42:01 PM 42.8025 -72.5053 87° East 424 488 13,800 -2,650 Descending Boston Center
Fri 12:42:59 PM 42.8089 -72.3439 87° East 430 495 11,400 -1,932 Descending Boston Center
Fri 12:43:59 PM 42.8128 -72.1825 88° East 409 471 10,000 -1,008 Descending Boston Center
Fri 12:44:58 PM 42.8186 -72.0522 86° East 362 417 9,400 -706 Descending Boston Center
Fri 12:45:58 PM 42.8222 -71.9333 88° East 326 375 8,600 -1,240 Descending Boston Center
Fri 12:46:59 PM 42.8239 -71.8172 89° East 306 352 6,900 -1,339 Descending Boston Center
Fri 12:47:59 PM 42.8169 -71.7128 95° East 296 341 5,900 -1,000 Descending Boston Center
Fri 12:48:59 PM 42.8081 -71.6250 98° East 246 283 4,900 -1,008 Descending Boston Center
Fri 12:49:58 PM 42.7969 -71.5489 101° East 217 250 3,900 -958 Descending Boston Center
Fri 12:50:58 PM 42.7736 -71.4814 115° Southeast 197 227 3,000 -496 Descending Boston Center
Fri 12:51:59 PM 42.7542 -71.4194 113° Southeast 184 212 2,900 -492 Descending Boston Center
Fri 12:53:00 PM 42.7767 -71.3594 63° Northeast 163 188 2,000 -443 Descending Boston Center
Fri 12:54:01 PM 42.8247 -71.3700 351° North 144 166 2,000 -254 Level Boston Center
Fri 12:54:58 PM 42.8667 -71.3978 334° Northwest 157 181 1,500 -667 Descending Boston Center
Fri 12:55:58 PM 42.9044 -71.4197 337° Northwest 152 175 700 -600 Descending Boston Center
Fri 12:56:58 PM 42.9378 -71.4389 337° Northwest 152 175 300 4,082 Descending Boston Center
Fri 12:58:00 PM 42.9736 -71.4667 330° Northwest 152 175 9,000 4,279 Climbing Boston Center
Fri 12:59:00 PM 43.0114 -71.4947 331° Northwest 152 175 9,000  Level Boston Center

Login

Don't have an account? Register now (free) for customized features, flight alerts, and more!